createdAt,value
2023-03-02T00:03:54.802Z,960.37
2023-03-02T00:18:57.121Z,960.45
2023-03-02T00:33:59.388Z,960.45
2023-03-02T00:49:01.821Z,960.7
2023-03-02T01:04:04.029Z,960.54
2023-03-02T01:19:06.265Z,960.57
2023-03-02T01:34:08.496Z,960.64
2023-03-02T01:49:10.749Z,960.77
2023-03-02T02:04:13.155Z,960.68
2023-03-02T02:19:15.457Z,960.7
2023-03-02T02:34:17.715Z,960.72
2023-03-02T02:49:20.046Z,960.83
2023-03-02T03:04:22.449Z,960.8
2023-03-02T03:19:24.774Z,961.01
2023-03-02T03:34:26.982Z,961.08
2023-03-02T03:49:29.158Z,961.11
2023-03-02T04:04:31.369Z,960.9
2023-03-02T04:19:33.736Z,961.17
2023-03-02T04:34:36.213Z,961.37
2023-03-02T04:49:38.476Z,961.33
2023-03-02T05:04:40.756Z,961.23
2023-03-02T05:19:43.074Z,961.11
2023-03-02T05:34:45.433Z,961
2023-03-02T05:49:47.685Z,961.01
2023-03-02T06:04:49.857Z,961.54
2023-03-02T06:19:52.113Z,961.12
2023-03-02T06:34:54.791Z,960.89
2023-03-02T06:49:57.146Z,960.93
2023-03-02T07:04:59.417Z,961.03
2023-03-02T07:20:01.900Z,960.84
2023-03-02T07:35:04.104Z,960.96
2023-03-02T07:50:06.615Z,960.78
2023-03-02T08:05:08.859Z,960.55
2023-03-02T08:20:11.068Z,960.59
2023-03-02T08:35:13.271Z,960.66
2023-03-02T08:50:15.552Z,960.77
2023-03-02T09:05:17.813Z,960.72
2023-03-02T09:20:19.983Z,960.75
2023-03-02T09:35:22.197Z,960.61
2023-03-02T10:05:35.670Z,960.63
2023-03-02T10:20:37.871Z,960.46
2023-03-02T10:35:40.458Z,960.84
2023-03-02T10:50:42.727Z,960.77
2023-03-02T11:05:45.116Z,960.03
2023-03-02T11:20:47.288Z,960.09
2023-03-02T11:35:49.565Z,960.2
2023-03-02T11:50:52.102Z,959.96
2023-03-02T12:05:54.608Z,959.83
2023-03-02T12:20:56.825Z,959.57
2023-03-02T12:35:59.115Z,959.08
2023-03-02T12:51:01.431Z,958.52
2023-03-02T13:06:03.864Z,958.57
2023-03-02T13:21:06.117Z,958.73
2023-03-02T13:36:08.592Z,958.78
2023-03-02T13:51:10.850Z,958.71
2023-03-02T14:06:13.091Z,958.36
2023-03-02T14:21:15.393Z,958.44
2023-03-02T14:36:17.669Z,958.18
2023-03-02T14:51:19.970Z,957.81
2023-03-02T15:06:22.190Z,957.82
2023-03-02T15:21:24.480Z,957.65
2023-03-02T15:36:26.686Z,957.5
2023-03-02T15:51:29.073Z,957.33
2023-03-02T16:06:31.363Z,957.13
2023-03-02T16:21:33.646Z,956.84
2023-03-02T16:36:35.937Z,956.69
2023-03-02T16:51:38.193Z,956.57
2023-03-02T17:06:43.498Z,956.38
2023-03-02T17:21:45.920Z,956.26
2023-03-02T17:36:48.232Z,956.11
2023-03-02T17:51:56.736Z,955.77
2023-03-02T18:06:59.007Z,955.99
2023-03-02T18:22:01.390Z,955.92
2023-03-02T18:37:03.484Z,955.79
2023-03-02T18:52:05.767Z,955.71
2023-03-02T19:07:07.983Z,955.59
2023-03-02T19:22:10.175Z,955.47
2023-03-02T19:37:19.575Z,955.2
2023-03-02T19:52:22.187Z,954.92
2023-03-02T20:07:24.483Z,954.84
2023-03-02T20:22:26.714Z,954.73
2023-03-02T20:37:28.987Z,954.48
2023-03-02T20:52:31.235Z,954.01
2023-03-02T21:07:33.515Z,953.92
2023-03-02T21:22:35.879Z,953.65
2023-03-02T21:37:38.172Z,953.17
2023-03-02T21:52:40.402Z,953.13
2023-03-02T22:07:42.658Z,952.97
2023-03-02T22:22:44.851Z,952.64
2023-03-02T22:37:47.080Z,952.66
2023-03-02T22:52:49.334Z,952.62
2023-03-02T23:07:51.770Z,952.52
2023-03-02T23:22:54.088Z,952.52
2023-03-02T23:37:56.313Z,952.63
2023-03-02T23:52:58.560Z,952.85
